Terminal Aerodrome Forecast
Issued by NWS Charleston, WV

Current Version | Previous Version | Graphics & Text | Print | Product List | Glossary On
Versions: 1 2 3 4 5 6 7 8 9 10 11 12 13 14 15 16 17 18 19 20 21 22 23 24 25 26 27
000
FTUS41 KRLX 190548
TAFEKN
TAF
KEKN 190548Z 1906/2006 00000KT 2SM BR SCT001 SCT050
     FM190700 00000KT 1SM BR BKN001
     FM190800 00000KT 1/4SM FG VV001
     FM191200 00000KT 3SM BR SCT050
     FM191300 VRB02KT P6SM SCT150
     FM192000 27004KT P6SM BKN080
     FM200200 VRB02KT P6SM SCT100=

USA.gov is the U.S. government's official web portal to all federal, state and local government web resources and services.